Time;durP1;ratioP1;P1;durP2;ratioP2;P2;SDS_P1;SDS_P2;PMS_P1;PMS_P2;Temp;Humidity;BMP_temperature;BMP_pressure;BME280_temperature;BME280_humidity;BME280_pressure;Samples;Min_cycle;Max_cycle;Signal;HPM_P1;HPM_P2
2022/05/14 00:01:04;;;;;;;6.33;4.47;;;19.30;99.90;;;;;;1887285;75;21190;-83
2022/05/14 00:04:00;;;;;;;5.55;4.03;;;19.30;99.90;;;;;;1850957;75;21140;-83
2022/05/14 00:06:56;;;;;;;7.53;5.50;;;19.30;99.90;;;;;;1870931;76;21204;-83
2022/05/14 00:09:55;;;;;;;7.37;5.85;;;19.40;99.90;;;;;;1879198;74;21110;-83
2022/05/14 00:13:06;;;;;;;8.03;5.65;;;19.60;99.90;;;;;;1886215;75;21079;-83
2022/05/14 00:16:13;;;;;;;8.65;5.58;;;19.60;99.90;;;;;;1885079;74;21592;-83
2022/05/14 00:19:12;;;;;;;9.45;5.90;;;19.30;99.90;;;;;;1883109;75;21065;-83
2022/05/14 00:22:07;;;;;;;8.00;5.83;;;19.30;99.90;;;;;;1889150;75;21158;-83
2022/05/14 00:25:03;;;;;;;9.58;6.17;;;19.20;99.90;;;;;;1846075;75;21075;-83
2022/05/14 00:27:59;;;;;;;10.95;6.87;;;19.20;99.90;;;;;;1915714;74;21058;-83
2022/05/14 00:30:55;;;;;;;8.98;6.10;;;19.20;99.90;;;;;;1910561;74;21137;-83
2022/05/14 00:33:50;;;;;;;10.05;6.55;;;19.10;99.90;;;;;;1932707;74;21107;-83
2022/05/14 00:36:44;;;;;;;8.93;6.10;;;19.10;99.90;;;;;;1927435;74;21051;-83
2022/05/14 00:39:37;;;;;;;7.30;5.40;;;19.10;99.90;;;;;;1908465;74;21140;-83
2022/05/14 00:42:35;;;;;;;9.35;6.97;;;19.20;99.90;;;;;;1906418;75;21106;-83
2022/05/14 00:45:36;;;;;;;7.20;4.97;;;19.20;99.90;;;;;;1903568;74;21139;-84
2022/05/14 00:48:40;;;;;;;5.70;5.10;;;19.10;99.90;;;;;;1926661;74;21656;-84
2022/05/14 00:51:34;;;;;;;5.67;4.97;;;18.90;99.90;;;;;;1909523;74;21059;-83
2022/05/14 00:54:35;;;;;;;9.27;5.23;;;18.80;99.90;;;;;;1904426;74;21183;-83
2022/05/14 00:57:30;;;;;;;7.05;5.10;;;18.70;99.90;;;;;;1916052;75;21088;-84
2022/05/14 01:00:29;;;;;;;8.40;4.75;;;18.60;99.90;;;;;;1910388;74;21113;-83
2022/05/14 01:03:24;;;;;;;7.12;4.87;;;18.50;99.90;;;;;;1902044;74;21068;-83
2022/05/14 01:06:20;;;;;;;6.65;4.83;;;18.30;99.90;;;;;;1926176;74;21113;-83
2022/05/14 01:09:16;;;;;;;7.42;4.90;;;18.40;99.90;;;;;;1874261;75;21140;-83
2022/05/14 01:12:22;;;;;;;9.00;4.90;;;18.40;99.90;;;;;;1917043;75;21046;-83
2022/05/14 01:15:22;;;;;;;6.83;4.62;;;18.50;99.90;;;;;;1885832;75;21096;-83
2022/05/14 01:18:20;;;;;;;5.95;4.50;;;18.50;99.90;;;;;;1912526;75;21147;-83
2022/05/14 01:21:23;;;;;;;6.42;4.65;;;18.40;99.90;;;;;;1880144;74;21078;-84
2022/05/14 01:26:59;;;;;;;5.85;4.45;;;18.30;99.90;;;;;;1971233;72;22182;-84
2022/05/14 01:30:10;;;;;;;5.08;4.28;;;18.20;99.90;;;;;;1923360;73;21114;-84
2022/05/14 01:33:21;;;;;;;6.40;4.50;;;18.20;99.90;;;;;;1929573;73;21070;-84
2022/05/14 01:36:12;;;;;;;6.20;4.95;;;18.10;99.90;;;;;;1916962;75;21094;-83
2022/05/14 01:39:22;;;;;;;7.03;4.75;;;18.10;99.90;;;;;;1925566;73;21181;-84
2022/05/14 01:42:14;;;;;;;6.20;4.78;;;18.10;99.90;;;;;;1924751;73;21140;-84
2022/05/14 01:45:07;;;;;;;8.33;5.12;;;18.10;99.90;;;;;;1929236;73;21121;-83
2022/05/14 01:47:59;;;;;;;5.90;5.00;;;18.00;99.90;;;;;;1917687;75;21055;-84
2022/05/14 01:50:51;;;;;;;6.80;4.67;;;17.90;99.90;;;;;;1925363;73;21054;-83
2022/05/14 01:53:42;;;;;;;5.80;4.80;;;17.90;99.90;;;;;;1940614;73;21087;-84
2022/05/14 01:56:35;;;;;;;6.62;4.65;;;17.90;99.90;;;;;;1918452;73;21186;-84
2022/05/14 01:59:27;;;;;;;5.12;4.58;;;18.00;99.90;;;;;;1917851;75;21114;-83
2022/05/14 02:02:18;;;;;;;5.30;4.60;;;18.00;99.90;;;;;;1917734;73;21099;-84
2022/05/14 02:05:11;;;;;;;5.72;4.80;;;18.00;99.90;;;;;;1939784;73;21099;-84
2022/05/14 02:08:04;;;;;;;7.22;4.55;;;17.90;99.90;;;;;;1926830;73;21055;-84
2022/05/14 02:10:57;;;;;;;6.67;4.90;;;17.90;99.90;;;;;;1921440;73;21064;-84
2022/05/14 02:13:51;;;;;;;7.55;4.25;;;18.00;99.90;;;;;;1930807;73;21083;-84
2022/05/14 02:16:42;;;;;;;6.92;4.65;;;18.00;99.90;;;;;;1928555;73;21096;-84
2022/05/14 02:19:35;;;;;;;5.62;4.58;;;17.90;99.90;;;;;;1928437;73;21067;-84
2022/05/14 02:22:27;;;;;;;5.47;4.85;;;18.00;99.90;;;;;;1921760;73;21052;-84
2022/05/14 02:25:19;;;;;;;6.87;4.55;;;17.90;99.90;;;;;;1917211;75;21533;-84
2022/05/14 02:28:10;;;;;;;6.97;5.08;;;17.80;99.90;;;;;;1917737;75;21170;-84
2022/05/14 02:31:01;;;;;;;7.78;4.95;;;17.80;99.90;;;;;;1917430;74;21062;-84
2022/05/14 02:33:53;;;;;;;4.80;4.28;;;17.70;99.90;;;;;;1917317;75;21075;-84
2022/05/14 02:36:44;;;;;;;6.92;4.60;;;17.60;99.90;;;;;;1917488;75;21071;-84
2022/05/14 02:39:35;;;;;;;5.83;4.72;;;17.60;99.90;;;;;;1922036;73;21051;-84
2022/05/14 02:42:27;;;;;;;6.37;4.60;;;17.60;99.90;;;;;;1922074;73;21515;-84
2022/05/14 02:45:19;;;;;;;8.18;5.15;;;17.60;99.90;;;;;;1917203;75;21162;-84
2022/05/14 02:48:12;;;;;;;8.28;4.83;;;17.60;99.90;;;;;;1921202;73;21172;-84
2022/05/14 02:51:04;;;;;;;4.65;4.20;;;17.50;99.90;;;;;;1917004;75;21062;-84
2022/05/14 02:53:55;;;;;;;6.47;4.42;;;17.60;99.90;;;;;;1916926;75;21183;-84
2022/05/14 02:56:47;;;;;;;7.62;5.45;;;17.60;99.90;;;;;;1916705;75;21482;-84
2022/05/14 02:59:39;;;;;;;7.47;5.15;;;17.60;99.90;;;;;;1915129;74;21555;-84
2022/05/14 03:05:12;;;;;;;7.78;4.58;;;17.50;99.90;;;;;;1948178;72;22146;-84
2022/05/14 03:08:23;;;;;;;7.35;4.97;;;17.50;99.90;;;;;;1908051;75;22609;-84
2022/05/14 03:11:32;;;;;;;6.15;4.70;;;17.50;99.90;;;;;;1900749;75;21148;-84
2022/05/14 03:14:24;;;;;;;5.97;4.70;;;17.40;99.90;;;;;;1893241;75;21514;-84
2022/05/14 03:17:35;;;;;;;5.90;4.85;;;17.30;99.90;;;;;;1903766;75;21072;-85
2022/05/14 03:20:26;;;;;;;7.42;4.95;;;17.20;99.90;;;;;;1893769;75;21059;-85
2022/05/14 03:23:17;;;;;;;7.62;5.22;;;17.20;99.90;;;;;;1915128;75;21474;-85
2022/05/14 03:26:08;;;;;;;7.05;5.47;;;17.20;99.90;;;;;;1902441;75;21049;-84
2022/05/14 03:29:01;;;;;;;6.22;5.15;;;17.20;99.90;;;;;;1895479;75;21083;-84
2022/05/14 03:31:52;;;;;;;6.17;4.87;;;17.30;99.90;;;;;;1900050;75;21164;-84
2022/05/14 03:34:45;;;;;;;9.35;5.50;;;17.20;99.90;;;;;;1895085;75;21097;-84
2022/05/14 03:37:37;;;;;;;7.12;4.97;;;17.20;99.90;;;;;;1887782;75;21124;-84
2022/05/14 03:40:29;;;;;;;5.45;4.50;;;17.20;99.90;;;;;;1884639;75;21133;-85
2022/05/14 03:43:21;;;;;;;7.65;4.70;;;17.20;99.90;;;;;;1900049;75;21157;-85
2022/05/14 03:46:13;;;;;;;7.15;4.83;;;17.10;99.90;;;;;;1895725;75;21134;-84
2022/05/14 03:49:05;;;;;;;7.70;5.15;;;17.20;99.90;;;;;;1909852;75;21623;-84
2022/05/14 03:51:57;;;;;;;6.85;4.95;;;17.10;99.90;;;;;;1894494;75;21106;-84
2022/05/14 03:57:34;;;;;;;6.55;5.70;;;17.00;99.90;;;;;;1941489;72;28394;-83
2022/05/14 04:00:44;;;;;;;6.53;5.37;;;17.30;99.90;;;;;;1895571;75;21080;-80
2022/05/14 04:03:55;;;;;;;7.83;5.12;;;17.30;99.90;;;;;;1886743;75;21043;-80
2022/05/14 04:06:47;;;;;;;7.58;5.05;;;17.20;99.90;;;;;;1898260;75;21114;-80
2022/05/14 04:12:38;;;;;;;6.70;5.42;;;16.90;99.90;;;;;;1958521;72;22614;-79
2022/05/14 04:15:48;;;;;;;7.95;4.97;;;16.80;99.90;;;;;;1912285;75;21043;-80
2022/05/14 04:18:58;;;;;;;6.62;4.92;;;16.80;99.90;;;;;;1890827;75;21615;-79
2022/05/14 04:21:49;;;;;;;6.78;5.35;;;16.70;99.90;;;;;;1886653;75;21074;-79
2022/05/14 04:27:40;;;;;;;7.00;5.22;;;16.60;99.90;;;;;;1951226;72;22152;-79
2022/05/14 04:30:51;;;;;;;6.87;4.85;;;16.70;99.90;;;;;;1918401;73;21603;-79
2022/05/14 04:34:01;;;;;;;6.05;5.40;;;16.60;99.90;;;;;;1918125;73;21084;-80
2022/05/14 04:36:55;;;;;;;6.87;5.00;;;16.60;99.90;;;;;;1926496;73;21070;-79
2022/05/14 04:40:05;;;;;;;6.45;5.53;;;16.60;99.90;;;;;;1934084;73;21158;-79
2022/05/14 04:42:57;;;;;;;7.78;4.87;;;16.60;99.90;;;;;;1918307;73;21094;-79
2022/05/14 04:45:48;;;;;;;8.03;5.37;;;16.60;99.90;;;;;;1935534;73;21588;-79
2022/05/14 04:48:40;;;;;;;7.20;5.50;;;16.60;99.90;;;;;;1929652;73;21146;-79
2022/05/14 04:51:32;;;;;;;9.20;5.00;;;16.60;99.90;;;;;;1933818;73;21113;-76
2022/05/14 04:54:23;;;;;;;5.90;5.10;;;16.70;99.90;;;;;;1926149;73;21051;-75
2022/05/14 04:57:17;;;;;;;6.37;5.22;;;16.70;99.90;;;;;;1939405;73;21553;-76
2022/05/14 05:00:11;;;;;;;5.70;4.60;;;16.70;99.90;;;;;;1918454;73;21125;-76
2022/05/14 05:03:19;;;;;;;6.05;5.00;;;16.70;99.90;;;;;;1922519;73;21084;-75
2022/05/14 05:06:20;;;;;;;7.47;4.90;;;16.80;99.90;;;;;;1917682;73;21079;-75
2022/05/14 05:09:12;;;;;;;7.12;5.12;;;16.90;99.90;;;;;;1928447;73;21563;-75
2022/05/14 05:12:04;;;;;;;8.35;5.33;;;17.00;99.90;;;;;;1882493;75;21138;-75
2022/05/14 05:14:55;;;;;;;6.97;5.15;;;17.10;99.90;;;;;;1922957;73;21183;-75
2022/05/14 05:17:47;;;;;;;8.95;6.05;;;17.10;99.90;;;;;;1920264;73;21053;-75
2022/05/14 05:20:44;;;;;;;6.67;5.37;;;17.10;99.90;;;;;;1926266;73;21156;-76
2022/05/14 05:23:36;;;;;;;7.10;5.80;;;17.10;99.90;;;;;;1923353;73;21201;-75
2022/05/14 05:26:28;;;;;;;6.97;5.28;;;17.10;99.90;;;;;;1929745;73;21148;-75
2022/05/14 05:29:19;;;;;;;5.50;4.92;;;17.10;99.90;;;;;;1925113;73;21066;-75
2022/05/14 05:32:11;;;;;;;8.80;5.33;;;17.10;99.90;;;;;;1916958;73;21469;-75
2022/05/14 05:35:02;;;;;;;7.22;4.92;;;17.10;99.90;;;;;;1933171;73;21142;-75
2022/05/14 05:37:56;;;;;;;6.45;5.25;;;17.20;99.90;;;;;;1928721;73;21207;-75
2022/05/14 05:40:50;;;;;;;7.53;4.95;;;17.40;99.90;;;;;;1903299;74;21184;-74
2022/05/14 05:43:44;;;;;;;6.35;4.80;;;17.50;99.90;;;;;;1910859;74;21176;-75
2022/05/14 05:46:39;;;;;;;8.03;5.65;;;17.60;99.90;;;;;;1902272;74;21111;-75
2022/05/14 05:49:33;;;;;;;6.90;4.95;;;17.60;99.90;;;;;;1883565;75;21134;-75
2022/05/14 05:52:25;;;;;;;7.53;5.30;;;17.70;99.90;;;;;;1942779;73;21098;-74
2022/05/14 05:58:26;;;;;;;8.93;5.83;;;17.80;99.90;;;;;;1921596;73;21083;-75
2022/05/14 06:01:17;;;;;;;5.75;5.20;;;17.70;99.90;;;;;;1916270;73;21094;-75
2022/05/14 06:04:08;;;;;;;7.80;5.40;;;17.70;99.90;;;;;;1904103;73;21120;-75
2022/05/14 06:07:00;;;;;;;8.13;5.95;;;17.70;99.90;;;;;;1935434;73;21210;-75
2022/05/14 06:09:51;;;;;;;8.03;5.78;;;17.70;99.90;;;;;;1911590;74;21114;-75
2022/05/14 06:12:43;;;;;;;8.75;6.30;;;17.80;99.90;;;;;;1916288;74;21142;-75
2022/05/14 06:15:34;;;;;;;8.80;6.35;;;17.90;99.90;;;;;;1905159;74;21203;-75
2022/05/14 06:18:26;;;;;;;7.60;6.17;;;18.00;99.90;;;;;;1938753;73;21126;-75
2022/05/14 06:21:17;;;;;;;9.48;5.72;;;18.00;99.90;;;;;;1927545;73;21058;-75
2022/05/14 06:24:10;;;;;;;9.78;5.85;;;18.00;99.90;;;;;;1915031;74;21219;-75
2022/05/14 06:27:01;;;;;;;10.45;5.42;;;18.10;99.90;;;;;;1904917;74;21076;-75
2022/05/14 06:29:53;;;;;;;7.47;5.58;;;18.10;99.90;;;;;;1938978;73;21194;-75
2022/05/14 06:32:44;;;;;;;7.15;4.92;;;18.20;99.90;;;;;;1923742;73;21181;-75
2022/05/14 06:35:40;;;;;;;7.33;5.22;;;18.30;99.90;;;;;;1925016;74;21804;-76
2022/05/14 06:38:33;;;;;;;5.28;4.78;;;18.50;99.90;;;;;;1926544;73;21056;-76
2022/05/14 06:41:25;;;;;;;7.30;5.70;;;18.50;99.90;;;;;;1915705;74;21214;-76
2022/05/14 06:44:17;;;;;;;8.45;5.75;;;18.60;99.90;;;;;;1933025;73;21070;-75
2022/05/14 06:47:09;;;;;;;6.72;5.47;;;18.60;99.90;;;;;;1916305;75;21500;-76
2022/05/14 06:50:01;;;;;;;5.97;5.30;;;18.70;99.90;;;;;;1926553;74;21160;-76
2022/05/14 06:52:55;;;;;;;6.42;5.62;;;18.80;99.90;;;;;;1904116;75;21149;-76
2022/05/14 06:55:50;;;;;;;7.28;5.22;;;18.90;99.90;;;;;;1903924;75;21154;-75
2022/05/14 06:58:44;;;;;;;9.93;5.78;;;19.00;99.90;;;;;;1916418;75;21144;-75
2022/05/14 07:01:39;;;;;;;9.13;5.67;;;19.10;99.90;;;;;;1916060;75;21109;-75
2022/05/14 07:07:41;;;;;;;5.55;4.70;;;19.20;99.90;;;;;;1916284;75;21189;-75
2022/05/14 07:10:37;;;;;;;7.03;5.10;;;19.30;99.90;;;;;;1904451;74;21458;-76
2022/05/14 07:13:33;;;;;;;8.13;5.20;;;19.40;99.90;;;;;;1913942;74;21407;-76
2022/05/14 07:16:24;;;;;;;6.15;5.08;;;19.40;99.90;;;;;;1921725;73;21210;-75
2022/05/14 07:19:17;;;;;;;5.78;4.97;;;19.50;99.90;;;;;;1916447;75;21075;-75
2022/05/14 07:22:11;;;;;;;6.83;5.05;;;19.60;99.90;;;;;;1903954;75;21082;-75
2022/05/14 07:25:02;;;;;;;6.60;5.55;;;19.70;99.90;;;;;;1916878;73;21121;-75
2022/05/14 07:27:58;;;;;;;7.17;5.30;;;19.80;99.90;;;;;;1906447;75;21368;-75
2022/05/14 07:30:50;;;;;;;7.30;5.40;;;19.90;99.90;;;;;;1916212;73;21094;-76
2022/05/14 07:33:42;;;;;;;6.65;5.90;;;19.90;99.90;;;;;;1916326;75;21104;-76
2022/05/14 07:36:36;;;;;;;7.90;5.10;;;20.00;99.90;;;;;;1916363;75;21630;-76
2022/05/14 07:39:31;;;;;;;7.20;6.10;;;20.00;99.90;;;;;;1916329;75;21171;-74
2022/05/14 07:42:26;;;;;;;7.72;5.95;;;19.90;99.90;;;;;;1921594;73;21158;-83
2022/05/14 07:45:20;;;;;;;8.48;5.90;;;19.90;99.90;;;;;;1917380;73;21055;-81
2022/05/14 07:50:59;;;;;;;6.50;5.33;;;20.10;99.90;;;;;;1956815;72;22201;-81
2022/05/14 07:54:11;;;;;;;6.45;5.10;;;20.20;99.90;;;;;;1917259;75;21144;-81
2022/05/14 07:57:21;;;;;;;7.33;5.50;;;20.20;99.90;;;;;;1919890;73;21051;-81
2022/05/14 08:00:15;;;;;;;6.97;5.35;;;20.20;99.90;;;;;;1928637;73;21094;-81
2022/05/14 08:03:26;;;;;;;9.50;5.50;;;20.20;99.90;;;;;;1918893;73;21445;-82
2022/05/14 08:06:19;;;;;;;7.20;5.65;;;20.20;99.90;;;;;;1917397;75;21088;-82
2022/05/14 08:09:10;;;;;;;7.08;5.33;;;20.20;99.90;;;;;;1917406;75;21703;-82
2022/05/14 08:12:02;;;;;;;8.15;5.20;;;20.20;99.90;;;;;;1916507;73;21215;-83
2022/05/14 08:14:54;;;;;;;6.87;5.28;;;20.20;99.90;;;;;;1927396;73;21117;-82
2022/05/14 08:17:47;;;;;;;7.05;5.35;;;20.30;99.90;;;;;;1919579;73;21193;-82
2022/05/14 08:20:39;;;;;;;7.33;5.40;;;20.40;99.90;;;;;;1921220;73;21062;-82
2022/05/14 08:26:40;;;;;;;6.78;5.80;;;20.40;99.90;;;;;;1936435;73;21102;-83
2022/05/14 08:29:32;;;;;;;7.30;5.67;;;20.50;99.90;;;;;;1881477;76;21063;-83
2022/05/14 08:32:24;;;;;;;8.00;5.20;;;20.60;99.90;;;;;;1919600;74;21184;-83
2022/05/14 08:35:17;;;;;;;6.58;5.42;;;20.60;99.90;;;;;;1917419;75;21126;-83
2022/05/14 08:38:11;;;;;;;7.60;5.90;;;20.60;99.90;;;;;;1917403;75;21106;-83
2022/05/14 08:41:04;;;;;;;8.03;5.33;;;20.70;99.90;;;;;;1917045;75;21160;-83
2022/05/14 08:44:01;;;;;;;6.58;5.80;;;20.90;99.90;;;;;;1917214;75;21094;-83
2022/05/14 08:46:57;;;;;;;7.72;5.85;;;21.00;99.90;;;;;;1917176;73;21066;-83
2022/05/14 08:49:52;;;;;;;7.08;5.97;;;21.10;99.90;;;;;;1917611;74;21152;-87
2022/05/14 08:52:43;;;;;;;6.22;5.10;;;21.20;99.90;;;;;;1917501;75;21113;-86
2022/05/14 08:55:39;;;;;;;7.65;5.42;;;21.30;99.90;;;;;;1917387;75;21171;-86
2022/05/14 08:58:34;;;;;;;9.20;6.05;;;21.50;99.90;;;;;;1916960;75;21137;-86
2022/05/14 09:01:27;;;;;;;7.25;4.83;;;21.60;99.90;;;;;;1916531;75;21117;-85
2022/05/14 09:04:20;;;;;;;6.60;5.03;;;21.60;99.90;;;;;;1913887;75;21114;-86
2022/05/14 09:07:12;;;;;;;5.90;4.65;;;21.60;99.90;;;;;;1916939;75;21095;-86
2022/05/14 09:10:08;;;;;;;6.12;4.12;;;21.80;99.90;;;;;;1916989;75;21173;-82
2022/05/14 09:13:05;;;;;;;7.08;5.20;;;21.90;99.90;;;;;;1916772;75;21160;-84
2022/05/14 09:15:59;;;;;;;5.58;4.33;;;22.00;99.90;;;;;;1916793;75;21082;-84
2022/05/14 09:18:53;;;;;;;4.45;4.00;;;22.20;99.90;;;;;;1916722;75;21054;-86
2022/05/14 09:21:53;;;;;;;7.70;4.42;;;22.30;99.90;;;;;;1932007;73;21193;-86
2022/05/14 09:24:48;;;;;;;7.40;4.10;;;22.30;99.90;;;;;;1916569;75;21157;-86
2022/05/14 09:27:45;;;;;;;5.75;4.62;;;22.30;99.90;;;;;;1916517;75;21143;-86
2022/05/14 09:30:39;;;;;;;6.95;4.55;;;22.40;99.90;;;;;;1916564;75;21167;-82
2022/05/14 09:33:38;;;;;;;7.65;4.58;;;22.40;99.90;;;;;;1916750;75;21063;-80
2022/05/14 09:36:32;;;;;;;5.83;5.03;;;22.50;99.90;;;;;;1916317;75;21074;-81
2022/05/14 09:39:24;;;;;;;5.47;4.70;;;22.70;99.90;;;;;;1916710;75;21106;-81
2022/05/14 09:42:27;;;;;;;7.28;5.40;;;22.80;99.90;;;;;;1916359;75;21502;-81
2022/05/14 09:45:27;;;;;;;5.95;5.35;;;22.90;99.90;;;;;;1931084;73;21058;-80
2022/05/14 09:48:23;;;;;;;6.03;4.97;;;23.00;99.90;;;;;;1931376;73;21205;-79
2022/05/14 09:51:25;;;;;;;5.42;4.85;;;23.10;99.90;;;;;;1920696;74;21633;-79
2022/05/14 09:54:21;;;;;;;7.83;5.05;;;23.10;99.90;;;;;;1837580;78;21190;-79
2022/05/14 09:57:43;;;;;;;9.90;5.25;;;23.20;99.90;;;;;;1805513;78;21121;-80
2022/05/14 10:00:38;;;;;;;6.53;5.28;;;23.30;99.90;;;;;;1799767;78;21155;-80
2022/05/14 10:03:56;;;;;;;7.70;5.40;;;23.30;99.90;;;;;;1804066;78;21180;-79
2022/05/14 10:06:52;;;;;;;5.92;4.65;;;23.30;99.90;;;;;;1837463;78;21159;-79
2022/05/14 10:09:49;;;;;;;5.35;4.40;;;23.30;99.90;;;;;;1822925;78;21188;-79
2022/05/14 10:12:44;;;;;;;6.92;4.62;;;23.50;99.90;;;;;;1836850;78;21133;-79
2022/05/14 10:15:41;;;;;;;6.97;4.40;;;23.60;99.90;;;;;;1768563;81;21432;-79
2022/05/14 10:18:40;;;;;;;4.83;3.95;;;23.50;99.90;;;;;;1817389;78;21212;-79
2022/05/14 10:21:37;;;;;;;5.85;4.35;;;23.50;99.90;;;;;;1798617;80;21131;-79
2022/05/14 10:27:57;;;;;;;6.53;5.00;;;23.60;99.90;;;;;;1794772;80;21127;-79
2022/05/14 10:30:54;;;;;;;7.40;4.97;;;23.70;99.90;;;;;;1828701;77;21681;-79
2022/05/14 10:33:48;;;;;;;5.50;4.00;;;23.70;99.90;;;;;;1787489;80;21174;-79
2022/05/14 10:36:44;;;;;;;6.30;4.28;;;23.80;99.90;;;;;;1808186;79;21089;-79
2022/05/14 10:39:39;;;;;;;5.45;3.87;;;23.90;99.90;;;;;;1798952;80;21138;-79
2022/05/14 10:42:37;;;;;;;5.58;3.98;;;23.90;99.90;;;;;;1837107;78;21150;-79
2022/05/14 10:45:33;;;;;;;4.60;4.12;;;23.90;99.90;;;;;;1807680;78;21107;-79
2022/05/14 10:48:37;;;;;;;6.50;4.17;;;23.90;99.90;;;;;;1848057;76;21629;-79
2022/05/14 10:51:31;;;;;;;5.67;4.10;;;23.90;99.90;;;;;;1784631;80;21611;-79
2022/05/14 10:54:25;;;;;;;4.58;4.17;;;24.00;99.90;;;;;;1812221;78;21633;-79
2022/05/14 10:57:36;;;;;;;4.58;3.95;;;24.10;99.90;;;;;;1829109;78;21139;-79
2022/05/14 11:00:39;;;;;;;5.67;4.67;;;24.10;99.90;;;;;;1822004;77;21202;-79
2022/05/14 11:03:36;;;;;;;4.75;4.08;;;24.30;99.90;;;;;;1822720;78;21158;-79
2022/05/14 11:06:36;;;;;;;5.12;4.33;;;24.40;99.90;;;;;;1828707;78;21155;-79
2022/05/14 11:09:39;;;;;;;5.22;3.95;;;24.40;99.90;;;;;;1828795;78;21120;-79
2022/05/14 11:12:34;;;;;;;6.42;5.00;;;24.40;99.90;;;;;;1828926;78;21915;-79
2022/05/14 11:15:28;;;;;;;5.12;4.05;;;24.50;99.90;;;;;;1828650;77;21068;-79
2022/05/14 11:18:20;;;;;;;4.87;4.05;;;24.50;99.90;;;;;;1825133;76;21118;-79
2022/05/14 11:21:11;;;;;;;4.40;3.80;;;24.70;99.90;;;;;;1794044;79;21124;-79
2022/05/14 11:24:04;;;;;;;5.78;4.40;;;24.70;99.90;;;;;;1828561;78;21060;-79
2022/05/14 11:26:57;;;;;;;4.53;3.95;;;24.80;99.90;;;;;;1799641;80;21076;-79
2022/05/14 11:29:52;;;;;;;4.78;3.87;;;24.70;99.90;;;;;;1818288;77;21159;-79
2022/05/14 11:32:47;;;;;;;4.47;3.72;;;24.80;99.90;;;;;;1808572;78;21076;-79
2022/05/14 11:38:34;;;;;;;5.05;3.70;;;24.90;99.90;;;;;;1954986;72;22115;-78
2022/05/14 11:41:44;;;;;;;5.00;4.10;;;24.90;99.90;;;;;;1902315;75;21071;-78
2022/05/14 11:44:59;;;;;;;6.10;3.90;;;25.10;99.90;;;;;;1906776;73;21211;-78
2022/05/14 11:47:58;;;;;;;4.72;4.15;;;25.10;99.90;;;;;;1891757;75;21652;-78
2022/05/14 11:51:11;;;;;;;6.75;3.70;;;25.20;99.90;;;;;;1892410;75;21086;-79
2022/05/14 11:54:08;;;;;;;4.20;3.45;;;25.20;99.90;;;;;;1878238;75;21208;-79
2022/05/14 11:57:04;;;;;;;5.25;3.83;;;25.20;99.90;;;;;;1906681;75;21038;-79
2022/05/14 11:59:59;;;;;;;5.80;3.67;;;25.20;99.90;;;;;;1906353;75;21052;-79
2022/05/14 12:05:34;;;;;;;3.95;3.45;;;25.30;99.90;;;;;;1941295;72;22284;-79
2022/05/14 12:09:05;;;;;;;5.55;3.87;;;25.40;99.90;;;;;;1916153;75;21678;-79
2022/05/14 12:12:18;;;;;;;5.10;3.15;;;25.40;99.90;;;;;;1895489;75;21038;-79
2022/05/14 12:15:13;;;;;;;5.22;3.70;;;25.50;99.90;;;;;;1921874;74;21099;-79
2022/05/14 12:18:24;;;;;;;5.40;3.33;;;25.50;99.90;;;;;;1915326;75;21587;-81
2022/05/14 12:21:16;;;;;;;5.20;3.55;;;25.60;99.90;;;;;;1910067;74;21156;-80
2022/05/14 12:24:18;;;;;;;3.67;3.30;;;25.60;99.90;;;;;;1916815;75;21109;-80
2022/05/14 12:27:17;;;;;;;4.20;3.17;;;25.60;99.90;;;;;;1884437;76;21133;-80
2022/05/14 12:33:11;;;;;;;4.00;3.25;;;25.70;99.90;;;;;;1900495;74;21062;-84
2022/05/14 12:33:15;;;;;;;4.17;3.55;;;25.90;99.90;;;;;;1896269;75;21038;-83
2022/05/14 12:36:10;;;;;;;6.72;3.60;;;25.80;99.90;;;;;;1918602;74;21150;-82
2022/05/14 12:39:03;;;;;;;4.80;3.67;;;26.00;99.90;;;;;;1919409;74;21228;-82
2022/05/14 12:41:57;;;;;;;4.95;3.55;;;26.00;99.90;;;;;;1899252;75;21102;-82
2022/05/14 12:44:51;;;;;;;4.42;3.27;;;26.00;99.90;;;;;;1914058;74;21093;-82
2022/05/14 12:47:43;;;;;;;5.90;3.20;;;26.20;99.90;;;;;;1932385;74;21051;-82
2022/05/14 12:50:35;;;;;;;4.25;3.40;;;26.20;99.90;;;;;;1915055;75;21058;-82
2022/05/14 12:53:37;;;;;;;6.00;3.52;;;26.30;99.90;;;;;;1917268;75;21093;-82
2022/05/14 12:59:11;;;;;;;4.92;3.50;;;26.30;99.90;;;;;;1955523;72;22125;-82
2022/05/14 13:02:24;;;;;;;3.95;3.50;;;26.30;99.90;;;;;;1908102;74;21131;-81
2022/05/14 13:05:40;;;;;;;3.67;3.37;;;26.40;99.90;;;;;;1896724;75;21204;-83
2022/05/14 13:08:36;;;;;;;3.62;3.30;;;26.50;99.90;;;;;;1894790;75;21133;-82
2022/05/14 13:11:49;;;;;;;4.87;3.62;;;26.50;99.90;;;;;;1913926;75;21173;-82
2022/05/14 13:14:43;;;;;;;5.50;3.25;;;26.40;99.90;;;;;;1913087;75;21090;-82
2022/05/14 13:17:38;;;;;;;7.72;3.55;;;26.40;99.90;;;;;;1883128;76;21154;-83
2022/05/14 13:20:29;;;;;;;3.55;3.25;;;26.40;99.90;;;;;;1899838;75;21083;-83
2022/05/14 13:23:22;;;;;;;4.90;3.40;;;26.40;99.90;;;;;;1904866;75;21185;-83
2022/05/14 13:28:57;;;;;;;4.78;3.72;;;26.30;99.90;;;;;;1953985;72;22090;-82
2022/05/14 13:32:11;;;;;;;4.58;3.12;;;26.40;99.90;;;;;;1903466;75;21087;-82
2022/05/14 13:38:38;;;;;;;4.37;3.35;;;26.50;99.90;;;;;;1903346;75;21050;-82
2022/05/14 13:41:49;;;;;;;4.25;2.95;;;26.50;99.90;;;;;;1903051;75;21035;-83
2022/05/14 13:44:44;;;;;;;4.85;3.00;;;26.70;99.90;;;;;;1898249;75;21147;-83
2022/05/14 13:47:37;;;;;;;3.72;2.90;;;26.80;99.90;;;;;;1906395;75;21226;-83
2022/05/14 13:50:32;;;;;;;5.22;2.95;;;27.00;99.90;;;;;;1906460;75;21088;-84
2022/05/14 13:53:27;;;;;;;4.28;2.55;;;27.20;99.90;;;;;;1906310;75;21144;-84
2022/05/14 13:59:23;;;;;;;4.62;2.70;;;27.70;99.90;;;;;;1957687;72;22154;-82
2022/05/14 14:02:34;;;;;;;2.80;2.40;;;27.90;99.90;;;;;;1897944;75;21102;-82
2022/05/14 14:05:49;;;;;;;2.80;2.58;;;28.20;99.90;;;;;;1904227;75;21104;-82
2022/05/14 14:08:41;;;;;;;4.00;2.40;;;28.30;99.90;;;;;;1892895;75;21200;-82
2022/05/14 14:11:51;;;;;;;4.83;2.50;;;28.50;99.90;;;;;;1891337;75;21040;-82
2022/05/14 14:14:43;;;;;;;3.42;2.52;;;28.50;99.90;;;;;;1906610;75;21047;-82
2022/05/14 14:17:35;;;;;;;2.70;2.37;;;28.40;99.90;;;;;;1904303;75;21091;-82
2022/05/14 14:20:30;;;;;;;3.87;2.20;;;28.30;99.90;;;;;;1902152;75;21177;-82
2022/05/14 14:23:25;;;;;;;3.27;2.37;;;28.60;99.90;;;;;;1906272;75;21154;-83
2022/05/14 14:26:16;;;;;;;4.33;2.20;;;28.50;99.90;;;;;;1906754;75;21132;-82
2022/05/14 14:29:08;;;;;;;2.98;2.25;;;28.80;99.90;;;;;;1884876;75;21136;-82
2022/05/14 14:32:00;;;;;;;2.45;2.25;;;28.80;99.90;;;;;;1903091;75;21570;-82
2022/05/14 14:34:51;;;;;;;4.72;2.27;;;28.70;99.90;;;;;;1896525;75;21161;-82
2022/05/14 14:37:43;;;;;;;4.40;2.45;;;28.80;99.90;;;;;;1895347;75;21592;-82
2022/05/14 14:40:36;;;;;;;6.72;2.37;;;29.20;99.90;;;;;;1895051;75;21051;-82
2022/05/14 14:43:29;;;;;;;2.52;2.22;;;29.20;99.90;;;;;;1898879;75;21055;-83
2022/05/14 14:46:21;;;;;;;3.20;2.17;;;29.20;99.90;;;;;;1888984;73;21196;-83
2022/05/14 14:49:13;;;;;;;4.17;2.22;;;29.30;99.90;;;;;;1906405;75;21114;-82
2022/05/14 14:52:06;;;;;;;3.45;2.17;;;29.50;99.90;;;;;;1906324;75;21091;-81
2022/05/14 14:54:58;;;;;;;2.85;2.05;;;29.40;99.90;;;;;;1905260;75;21185;-83
2022/05/14 14:57:52;;;;;;;4.28;2.08;;;29.50;99.90;;;;;;1902316;74;21047;-83
2022/05/14 15:00:46;;;;;;;2.30;1.92;;;29.10;99.90;;;;;;1901520;74;21192;-82
2022/05/14 15:03:41;;;;;;;3.62;2.20;;;29.30;99.90;;;;;;1922420;74;21201;-82
2022/05/14 15:06:32;;;;;;;3.45;2.02;;;29.70;99.90;;;;;;1846610;77;21136;-81
2022/05/14 15:09:24;;;;;;;3.22;1.75;;;29.60;99.90;;;;;;1919579;74;21100;-83
2022/05/14 15:12:16;;;;;;;3.27;2.20;;;29.20;99.90;;;;;;1914241;74;21082;-82
2022/05/14 15:15:10;;;;;;;5.92;2.20;;;29.10;99.90;;;;;;1903739;74;21050;-81
2022/05/14 15:18:01;;;;;;;3.80;2.00;;;29.20;99.90;;;;;;1857456;77;21077;-82
2022/05/14 15:20:54;;;;;;;4.70;1.85;;;29.50;99.80;;;;;;1911196;74;21165;-82
2022/05/14 15:23:46;;;;;;;2.80;1.70;;;29.50;99.20;;;;;;1840592;77;21136;-83
2022/05/14 15:26:38;;;;;;;2.55;2.10;;;29.10;99.50;;;;;;1900612;74;21062;-82
2022/05/14 15:29:31;;;;;;;3.92;2.22;;;29.10;99.70;;;;;;1922105;74;21121;-82
2022/05/14 15:32:27;;;;;;;4.20;2.10;;;28.90;99.10;;;;;;1921898;74;21054;-83
2022/05/14 15:35:21;;;;;;;2.05;1.70;;;29.10;99.20;;;;;;1900085;75;21109;-85
2022/05/14 15:38:13;;;;;;;2.72;1.77;;;29.20;98.30;;;;;;1913361;74;21123;-85
2022/05/14 15:41:07;;;;;;;2.20;2.00;;;29.30;98.60;;;;;;1902498;74;21068;-83
2022/05/14 15:44:02;;;;;;;4.42;2.30;;;29.60;98.10;;;;;;1903338;74;21050;-83
2022/05/14 15:46:58;;;;;;;4.22;2.33;;;29.70;97.70;;;;;;1902540;74;21577;-84
2022/05/14 15:49:53;;;;;;;2.27;1.70;;;29.60;97.30;;;;;;1917501;74;21116;-83
2022/05/14 15:52:46;;;;;;;2.33;1.70;;;29.80;96.60;;;;;;1912625;74;21112;-84
2022/05/14 15:55:40;;;;;;;3.42;1.85;;;30.00;96.50;;;;;;1920966;74;21505;-84
2022/05/14 15:58:32;;;;;;;3.87;1.60;;;30.10;96.20;;;;;;1921744;74;21118;-85
2022/05/14 16:01:24;;;;;;;2.47;1.80;;;30.20;95.90;;;;;;1888384;74;21091;-84